Kirkby — S6NR — position and weather

sailwx.info

Track history (hours):
 
Tides and Currents Weather Stations Pressure Air Temp Water Temp Dewpoint Dewpoint Depression Visibility Wind Speed Wind Dir Waves Ship Positions

Kirkby

Last reported at 2018-Feb-15 08:01 UTC. Time now 2018-Feb-18 18:32 UTC.
Position N 26°51' W 014°37'.

Length 120 m; draft 6.6 m.

Type: Ship (hazmat cat A). MMSI: 566813000.

Date/timePositionNaut miles runAvg speedWind from/ knotsBaromVisibWave heightAir tempDewpointWater temp
2018-Feb-15 08:01N 26°51' W 014°37'114.7
2018-Feb-15 07:59N 26°52' W 014°37'714.7
2018-Feb-15 07:29N 26°58' W 014°32'714.7
2018-Feb-15 07:00N 27°03' W 014°27'814.6
2018-Feb-15 06:30N 27°08' W 014°21'714.5
2018-Feb-15 06:00N 27°13' W 014°15'714.5
2018-Feb-15 05:30N 27°18' W 014°09'714.5
2018-Feb-15 05:00N 27°23' W 014°04'714.5
2018-Feb-15 04:30N 27°29' W 013°59'714.8
2018-Feb-15 04:00N 27°35' W 013°53'815.2
2018-Feb-15 03:30N 27°40' W 013°48'815.4
2018-Feb-15 02:59N 27°46' W 013°41'715.2
2018-Feb-15 02:30N 27°51' W 013°36'815.0
2018-Feb-15 02:00N 27°57' W 013°30'814.6
2018-Feb-15 01:28N 28°03' W 013°24'714.4
2018-Feb-15 01:00N 28°08' W 013°19'714.4
2018-Feb-15 00:30N 28°13' W 013°14'714.3
2018-Feb-15 00:00N 28°18' W 013°08'714.5
2018-Feb-14 23:30N 28°24' W 013°03'814.6
2018-Feb-14 22:59N 28°29' W 012°57'714.6
2018-Feb-14 22:31N 28°34' W 012°51'814.7
2018-Feb-14 21:58N 28°40' W 012°45'714.8
2018-Feb-14 21:30N 28°45' W 012°40'714.8
2018-Feb-14 21:01N 28°51' W 012°35'814.8
2018-Feb-14 20:30N 28°56' W 012°29'1214.9
2018-Feb-14 19:43N 29°05' W 012°20'414.9
2018-Feb-14 19:29N 29°07' W 012°17'714.7
2018-Feb-14 18:59N 29°13' W 012°11'1814.8
2018-Feb-14 17:48N 29°26' W 011°58'415.1
2018-Feb-14 17:30N 29°29' W 011°55'715.0
2018-Feb-14 17:00N 29°35' W 011°49'714.8
2018-Feb-14 16:30N 29°40' W 011°43'714.7
2018-Feb-14 16:00N 29°46' W 011°37'6414.6
2018-Feb-14 11:40N 30°38' W 010°55'914.9
2018-Feb-14 11:05N 30°45' W 010°50'114.9
2018-Feb-14 11:00N 30°46' W 010°49'715.0
2018-Feb-14 10:30N 30°52' W 010°44'40314.2
2018-Feb-13 06:09N 35°58' W 005°30'210.4
2018-Feb-13 05:57N 35°59' W 005°28'4 9.6
2018-Feb-13 05:30N 36°02' W 005°24'612.2
2018-Feb-13 05:00N 36°08' W 005°24'3 4.2
2018-Feb-13 04:24N 36°10' W 005°26'0 0.1
2018-Feb-13 03:57N 36°10' W 005°26'0 0.0
2018-Feb-13 03:21N 36°10' W 005°26'0 0.1
2018-Feb-13 02:42N 36°10' W 005°26'0 0.0
2018-Feb-13 02:30N 36°10' W 005°26'0 0.0
2018-Feb-13 01:48N 36°10' W 005°26'0 0.0
2018-Feb-13 01:30N 36°10' W 005°26'0 0.0
2018-Feb-13 01:00N 36°10' W 005°26'0 0.0
2018-Feb-13 00:30N 36°10' W 005°26'0 0.0
2018-Feb-12 23:42N 36°10' W 005°26'0 0.0
2018-Feb-12 23:21N 36°10' W 005°26'0 0.0
2018-Feb-12 23:00N 36°10' W 005°26'0 0.0
2018-Feb-12 22:15N 36°10' W 005°26'0 0.0
2018-Feb-12 21:54N 36°10' W 005°26'0 0.0
2018-Feb-12 21:21N 36°10' W 005°26'0 0.0
2018-Feb-12 20:57N 36°10' W 005°26'0 0.0
2018-Feb-12 19:36N 36°10' W 005°26'0 0.0
2018-Feb-11 22:12N 36°10' W 005°26'0 0.0
2018-Feb-11 20:36N 36°10' W 005°26'0 0.1
2018-Feb-11 20:30N 36°10' W 005°26'0 0.0
2018-Feb-11 18:42N 36°10' W 005°26'0 0.0
2018-Feb-11 18:27N 36°10' W 005°26'0 0.0
2018-Feb-11 17:54N 36°10' W 005°26'0 0.0
2018-Feb-11 17:30N 36°10' W 005°26'0 0.0
2018-Feb-11 16:54N 36°10' W 005°26'0 0.0
2018-Feb-11 09:56N 36°10' W 005°26'0 0.1
2018-Feb-11 09:28N 36°10' W 005°26'1 0.0
2018-Feb-10 08:20N 36°11' W 005°24'1 2.1
2018-Feb-10 07:58N 36°10' W 005°24'3 5.3
2018-Feb-10 07:30N 36°07' W 005°23'4 8.9
2018-Feb-10 07:00N 36°04' W 005°20'5 9.1
2018-Feb-10 06:30N 35°60' W 005°23'713.1
2018-Feb-10 06:00N 35°57' W 005°30'17113.7
2018-Feb-09 17:30N 34°08' W 008°10'714.6
2018-Feb-09 17:00N 34°02' W 008°16'714.4
2018-Feb-09 16:30N 33°56' W 008°21'714.2
2018-Feb-09 16:00N 33°51' W 008°27'  
Track history (hours):
 
Tides and Currents Weather Stations Pressure Air Temp Water Temp Dewpoint Dewpoint Depression Visibility Wind Speed Wind Dir Waves Ship Positions

Kirkby

Last reported at 2018-Feb-15 08:01 UTC. Time now 2018-Feb-18 18:32 UTC.
Position N 26°51' W 014°37'.

Length 120 m; draft 6.6 m.

Type: Ship (hazmat cat A). MMSI: 566813000.

Date/timePositionNaut miles runAvg speedWind from/ knotsBaromVisibWave heightAir tempDewpointWater temp
2018-Feb-15 08:01N 26°51' W 014°37'114.7
2018-Feb-15 07:59N 26°52' W 014°37'714.7
2018-Feb-15 07:29N 26°58' W 014°32'714.7
2018-Feb-15 07:00N 27°03' W 014°27'814.6
2018-Feb-15 06:30N 27°08' W 014°21'714.5
2018-Feb-15 06:00N 27°13' W 014°15'714.5
2018-Feb-15 05:30N 27°18' W 014°09'714.5
2018-Feb-15 05:00N 27°23' W 014°04'714.5
2018-Feb-15 04:30N 27°29' W 013°59'714.8
2018-Feb-15 04:00N 27°35' W 013°53'815.2
2018-Feb-15 03:30N 27°40' W 013°48'815.4
2018-Feb-15 02:59N 27°46' W 013°41'715.2
2018-Feb-15 02:30N 27°51' W 013°36'815.0
2018-Feb-15 02:00N 27°57' W 013°30'814.6
2018-Feb-15 01:28N 28°03' W 013°24'714.4
2018-Feb-15 01:00N 28°08' W 013°19'714.4
2018-Feb-15 00:30N 28°13' W 013°14'714.3
2018-Feb-15 00:00N 28°18' W 013°08'714.5
2018-Feb-14 23:30N 28°24' W 013°03'814.6
2018-Feb-14 22:59N 28°29' W 012°57'714.6
2018-Feb-14 22:31N 28°34' W 012°51'814.7
2018-Feb-14 21:58N 28°40' W 012°45'714.8
2018-Feb-14 21:30N 28°45' W 012°40'714.8
2018-Feb-14 21:01N 28°51' W 012°35'814.8
2018-Feb-14 20:30N 28°56' W 012°29'1214.9
2018-Feb-14 19:43N 29°05' W 012°20'414.9
2018-Feb-14 19:29N 29°07' W 012°17'714.7
2018-Feb-14 18:59N 29°13' W 012°11'1814.8
2018-Feb-14 17:48N 29°26' W 011°58'415.1
2018-Feb-14 17:30N 29°29' W 011°55'715.0
2018-Feb-14 17:00N 29°35' W 011°49'714.8
2018-Feb-14 16:30N 29°40' W 011°43'714.7
2018-Feb-14 16:00N 29°46' W 011°37'6414.6
2018-Feb-14 11:40N 30°38' W 010°55'914.9
2018-Feb-14 11:05N 30°45' W 010°50'114.9
2018-Feb-14 11:00N 30°46' W 010°49'715.0
2018-Feb-14 10:30N 30°52' W 010°44'40314.2
2018-Feb-13 06:09N 35°58' W 005°30'210.4
2018-Feb-13 05:57N 35°59' W 005°28'4 9.6
2018-Feb-13 05:30N 36°02' W 005°24'612.2
2018-Feb-13 05:00N 36°08' W 005°24'3 4.2
2018-Feb-13 04:24N 36°10' W 005°26'0 0.1
2018-Feb-13 03:57N 36°10' W 005°26'0 0.0
2018-Feb-13 03:21N 36°10' W 005°26'0 0.1
2018-Feb-13 02:42N 36°10' W 005°26'0 0.0
2018-Feb-13 02:30N 36°10' W 005°26'0 0.0
2018-Feb-13 01:48N 36°10' W 005°26'0 0.0
2018-Feb-13 01:30N 36°10' W 005°26'0 0.0
2018-Feb-13 01:00N 36°10' W 005°26'0 0.0
2018-Feb-13 00:30N 36°10' W 005°26'0 0.0
2018-Feb-12 23:42N 36°10' W 005°26'0 0.0
2018-Feb-12 23:21N 36°10' W 005°26'0 0.0
2018-Feb-12 23:00N 36°10' W 005°26'0 0.0
2018-Feb-12 22:15N 36°10' W 005°26'0 0.0
2018-Feb-12 21:54N 36°10' W 005°26'0 0.0
2018-Feb-12 21:21N 36°10' W 005°26'0 0.0
2018-Feb-12 20:57N 36°10' W 005°26'0 0.0
2018-Feb-12 19:36N 36°10' W 005°26'0 0.0
2018-Feb-11 22:12N 36°10' W 005°26'0 0.0
2018-Feb-11 20:36N 36°10' W 005°26'0 0.1
2018-Feb-11 20:30N 36°10' W 005°26'0 0.0
2018-Feb-11 18:42N 36°10' W 005°26'0 0.0
2018-Feb-11 18:27N 36°10' W 005°26'0 0.0
2018-Feb-11 17:54N 36°10' W 005°26'0 0.0
2018-Feb-11 17:30N 36°10' W 005°26'0 0.0
2018-Feb-11 16:54N 36°10' W 005°26'0 0.0
2018-Feb-11 09:56N 36°10' W 005°26'0 0.1
2018-Feb-11 09:28N 36°10' W 005°26'1 0.0
2018-Feb-10 08:20N 36°11' W 005°24'1 2.1
2018-Feb-10 07:58N 36°10' W 005°24'3 5.3
2018-Feb-10 07:30N 36°07' W 005°23'4 8.9
2018-Feb-10 07:00N 36°04' W 005°20'5 9.1
2018-Feb-10 06:30N 35°60' W 005°23'713.1
2018-Feb-10 06:00N 35°57' W 005°30'17113.7
2018-Feb-09 17:30N 34°08' W 008°10'714.6
2018-Feb-09 17:00N 34°02' W 008°16'714.4
2018-Feb-09 16:30N 33°56' W 008°21'714.2
2018-Feb-09 16:00N 33°51' W 008°27'  

Dump ship's entire track history